sensor_id;sensor_type;location;lat;lon;timestamp;temperature;humidity
52675;DHT22;38569;52.722;6.440;2022-10-26T00:41:34;9.20;99.90
52675;DHT22;38569;52.722;6.440;2022-10-26T00:47:20;9.10;99.90
52675;DHT22;38569;52.722;6.440;2022-10-26T00:49:48;9.20;99.90
52675;DHT22;38569;52.722;6.440;2022-10-26T00:52:17;9.20;99.90
52675;DHT22;38569;52.722;6.440;2022-10-26T00:54:44;9.20;99.90
52675;DHT22;38569;52.722;6.440;2022-10-26T00:57:11;9.20;99.90
52675;DHT22;38569;52.722;6.440;2022-10-26T00:59:39;9.20;99.90
52675;DHT22;38569;52.722;6.440;2022-10-26T01:02:05;9.20;99.90
52675;DHT22;38569;52.722;6.440;2022-10-26T01:04:32;9.20;99.90
52675;DHT22;38569;52.722;6.440;2022-10-26T01:07:00;9.20;99.90
52675;DHT22;38569;52.722;6.440;2022-10-26T01:09:26;9.20;99.90
52675;DHT22;38569;52.722;6.440;2022-10-26T01:11:52;9.20;99.90
52675;DHT22;38569;52.722;6.440;2022-10-26T01:14:18;9.30;99.90
52675;DHT22;38569;52.722;6.440;2022-10-26T01:27:57;9.40;99.90
52675;DHT22;38569;52.722;6.440;2022-10-26T01:35:51;9.30;99.90
52675;DHT22;38569;52.722;6.440;2022-10-26T01:38:35;9.30;99.90
52675;DHT22;38569;52.722;6.440;2022-10-26T01:43:43;9.30;99.90
52675;DHT22;38569;52.722;6.440;2022-10-26T01:46:12;9.30;99.90
52675;DHT22;38569;52.722;6.440;2022-10-26T01:48:39;9.30;99.90
52675;DHT22;38569;52.722;6.440;2022-10-26T01:51:06;9.20;99.90
52675;DHT22;38569;52.722;6.440;2022-10-26T01:53:33;9.30;99.90
52675;DHT22;38569;52.722;6.440;2022-10-26T01:55:58;9.30;99.90
52675;DHT22;38569;52.722;6.440;2022-10-26T02:01:34;9.30;99.90
52675;DHT22;38569;52.722;6.440;2022-10-26T02:07:01;9.40;99.90
52675;DHT22;38569;52.722;6.440;2022-10-26T02:10:19;9.30;99.90
52675;DHT22;38569;52.722;6.440;2022-10-26T02:12:38;9.40;99.90
52675;DHT22;38569;52.722;6.440;2022-10-26T02:15:09;9.40;99.90
52675;DHT22;38569;52.722;6.440;2022-10-26T02:17:58;9.40;99.90
52675;DHT22;38569;52.722;6.440;2022-10-26T02:20:30;9.50;99.90
52675;DHT22;38569;52.722;6.440;2022-10-26T02:23:01;9.50;99.90
52675;DHT22;38569;52.722;6.440;2022-10-26T02:25:33;9.50;99.90
52675;DHT22;38569;52.722;6.440;2022-10-26T02:28:09;9.60;99.90
52675;DHT22;38569;52.722;6.440;2022-10-26T02:30:38;9.70;99.90
52675;DHT22;38569;52.722;6.440;2022-10-26T02:33:06;9.70;99.90
52675;DHT22;38569;52.722;6.440;2022-10-26T02:35:35;9.70;99.90
52675;DHT22;38569;52.722;6.440;2022-10-26T02:38:05;9.70;99.90
52675;DHT22;38569;52.722;6.440;2022-10-26T02:40:32;9.70;99.90
52675;DHT22;38569;52.722;6.440;2022-10-26T02:43:04;9.80;99.90
52675;DHT22;38569;52.722;6.440;2022-10-26T02:45:35;9.70;99.90
52675;DHT22;38569;52.722;6.440;2022-10-26T02:48:03;9.70;99.90
52675;DHT22;38569;52.722;6.440;2022-10-26T02:50:38;9.70;99.90
52675;DHT22;38569;52.722;6.440;2022-10-26T02:53:26;9.70;99.90
52675;DHT22;38569;52.722;6.440;2022-10-26T02:55:54;9.80;99.90
52675;DHT22;38569;52.722;6.440;2022-10-26T02:58:25;9.80;99.90
52675;DHT22;38569;52.722;6.440;2022-10-26T03:00:53;9.80;99.90
52675;DHT22;38569;52.722;6.440;2022-10-26T03:03:19;9.80;99.90
52675;DHT22;38569;52.722;6.440;2022-10-26T03:05:45;9.90;99.90
52675;DHT22;38569;52.722;6.440;2022-10-26T03:08:10;9.90;99.90
52675;DHT22;38569;52.722;6.440;2022-10-26T03:10:40;9.90;99.90
52675;DHT22;38569;52.722;6.440;2022-10-26T03:13:07;9.90;99.90
52675;DHT22;38569;52.722;6.440;2022-10-26T03:15:33;9.90;99.90
52675;DHT22;38569;52.722;6.440;2022-10-26T03:17:59;9.90;99.90
52675;DHT22;38569;52.722;6.440;2022-10-26T03:20:24;9.90;99.90
52675;DHT22;38569;52.722;6.440;2022-10-26T03:22:50;9.90;99.90
52675;DHT22;38569;52.722;6.440;2022-10-26T03:25:16;9.90;99.90
52675;DHT22;38569;52.722;6.440;2022-10-26T03:27:42;9.90;99.90
52675;DHT22;38569;52.722;6.440;2022-10-26T03:30:08;9.90;99.90
52675;DHT22;38569;52.722;6.440;2022-10-26T03:32:33;9.90;99.90
52675;DHT22;38569;52.722;6.440;2022-10-26T03:34:59;9.90;99.90
52675;DHT22;38569;52.722;6.440;2022-10-26T03:37:25;9.90;99.90
52675;DHT22;38569;52.722;6.440;2022-10-26T03:39:51;9.90;99.90
52675;DHT22;38569;52.722;6.440;2022-10-26T03:42:17;9.80;99.90
52675;DHT22;38569;52.722;6.440;2022-10-26T03:44:42;9.80;99.90
52675;DHT22;38569;52.722;6.440;2022-10-26T03:47:08;9.80;99.90
52675;DHT22;38569;52.722;6.440;2022-10-26T03:49:34;9.80;99.90
52675;DHT22;38569;52.722;6.440;2022-10-26T03:52:00;9.80;99.90
52675;DHT22;38569;52.722;6.440;2022-10-26T03:54:29;9.80;99.90
52675;DHT22;38569;52.722;6.440;2022-10-26T03:56:55;9.80;99.90
52675;DHT22;38569;52.722;6.440;2022-10-26T03:59:20;9.80;99.90
52675;DHT22;38569;52.722;6.440;2022-10-26T04:01:46;9.80;99.90
52675;DHT22;38569;52.722;6.440;2022-10-26T04:04:12;9.80;99.90
52675;DHT22;38569;52.722;6.440;2022-10-26T04:06:37;9.80;99.90
52675;DHT22;38569;52.722;6.440;2022-10-26T04:09:03;9.80;99.90
52675;DHT22;38569;52.722;6.440;2022-10-26T04:11:29;9.80;99.90
52675;DHT22;38569;52.722;6.440;2022-10-26T04:13:55;9.80;99.90
52675;DHT22;38569;52.722;6.440;2022-10-26T04:16:24;9.90;99.90
52675;DHT22;38569;52.722;6.440;2022-10-26T04:18:50;9.90;99.90
52675;DHT22;38569;52.722;6.440;2022-10-26T04:21:15;9.90;99.90
52675;DHT22;38569;52.722;6.440;2022-10-26T04:23:41;9.90;99.90
52675;DHT22;38569;52.722;6.440;2022-10-26T04:26:07;10.00;99.90
52675;DHT22;38569;52.722;6.440;2022-10-26T04:28:33;10.00;99.90
52675;DHT22;38569;52.722;6.440;2022-10-26T04:30:59;10.00;99.90
52675;DHT22;38569;52.722;6.440;2022-10-26T04:33:24;10.10;99.90
52675;DHT22;38569;52.722;6.440;2022-10-26T04:35:50;10.10;99.90
52675;DHT22;38569;52.722;6.440;2022-10-26T04:38:16;10.20;99.90
52675;DHT22;38569;52.722;6.440;2022-10-26T04:40:42;10.10;99.90
52675;DHT22;38569;52.722;6.440;2022-10-26T04:43:07;10.20;99.90
52675;DHT22;38569;52.722;6.440;2022-10-26T04:45:33;10.10;99.90
52675;DHT22;38569;52.722;6.440;2022-10-26T04:48:07;10.20;99.90
52675;DHT22;38569;52.722;6.440;2022-10-26T04:50:34;10.20;99.90
52675;DHT22;38569;52.722;6.440;2022-10-26T04:53:01;10.20;99.90
52675;DHT22;38569;52.722;6.440;2022-10-26T04:55:27;10.20;99.90
52675;DHT22;38569;52.722;6.440;2022-10-26T04:57:52;10.20;99.90
52675;DHT22;38569;52.722;6.440;2022-10-26T05:00:18;10.20;99.90
52675;DHT22;38569;52.722;6.440;2022-10-26T05:02:44;10.30;99.90
52675;DHT22;38569;52.722;6.440;2022-10-26T05:05:09;10.30;99.90
52675;DHT22;38569;52.722;6.440;2022-10-26T05:07:35;10.30;99.90
52675;DHT22;38569;52.722;6.440;2022-10-26T05:10:01;10.30;99.90
52675;DHT22;38569;52.722;6.440;2022-10-26T05:12:27;10.30;99.90
52675;DHT22;38569;52.722;6.440;2022-10-26T05:14:53;10.30;99.90
52675;DHT22;38569;52.722;6.440;2022-10-26T05:17:24;10.40;99.90
52675;DHT22;38569;52.722;6.440;2022-10-26T05:19:50;10.40;99.90
52675;DHT22;38569;52.722;6.440;2022-10-26T05:22:23;10.40;99.90
52675;DHT22;38569;52.722;6.440;2022-10-26T05:24:50;10.50;99.90
52675;DHT22;38569;52.722;6.440;2022-10-26T05:27:16;10.50;99.90
52675;DHT22;38569;52.722;6.440;2022-10-26T05:29:42;10.50;99.90
52675;DHT22;38569;52.722;6.440;2022-10-26T05:32:08;10.60;99.90
52675;DHT22;38569;52.722;6.440;2022-10-26T05:34:34;10.60;99.90
52675;DHT22;38569;52.722;6.440;2022-10-26T05:36:59;10.60;99.90
52675;DHT22;38569;52.722;6.440;2022-10-26T05:39:25;10.60;99.90
52675;DHT22;38569;52.722;6.440;2022-10-26T05:41:51;10.60;99.90
52675;DHT22;38569;52.722;6.440;2022-10-26T05:44:17;10.70;99.90
52675;DHT22;38569;52.722;6.440;2022-10-26T05:46:42;10.70;99.90
52675;DHT22;38569;52.722;6.440;2022-10-26T05:49:10;10.70;99.90
52675;DHT22;38569;52.722;6.440;2022-10-26T05:51:36;10.70;99.90
52675;DHT22;38569;52.722;6.440;2022-10-26T05:54:04;10.70;99.90
52675;DHT22;38569;52.722;6.440;2022-10-26T05:56:39;10.70;99.90
52675;DHT22;38569;52.722;6.440;2022-10-26T05:59:11;10.70;99.90
52675;DHT22;38569;52.722;6.440;2022-10-26T06:04:43;10.70;99.90
52675;DHT22;38569;52.722;6.440;2022-10-26T06:07:18;10.70;99.90
52675;DHT22;38569;52.722;6.440;2022-10-26T06:09:46;10.70;99.90
52675;DHT22;38569;52.722;6.440;2022-10-26T06:12:13;10.70;99.90
52675;DHT22;38569;52.722;6.440;2022-10-26T06:14:39;10.70;99.90
52675;DHT22;38569;52.722;6.440;2022-10-26T06:19:35;10.70;99.90
52675;DHT22;38569;52.722;6.440;2022-10-26T06:22:17;10.80;99.90
52675;DHT22;38569;52.722;6.440;2022-10-26T06:30:18;10.80;99.90
52675;DHT22;38569;52.722;6.440;2022-10-26T06:32:48;10.80;99.90
52675;DHT22;38569;52.722;6.440;2022-10-26T06:37:44;10.80;99.90
52675;DHT22;38569;52.722;6.440;2022-10-26T06:40:15;10.80;99.90
52675;DHT22;38569;52.722;6.440;2022-10-26T06:42:41;10.90;99.90
52675;DHT22;38569;52.722;6.440;2022-10-26T06:45:15;10.90;99.90
52675;DHT22;38569;52.722;6.440;2022-10-26T06:48:01;10.90;99.90
52675;DHT22;38569;52.722;6.440;2022-10-26T06:50:58;10.90;99.90
52675;DHT22;38569;52.722;6.440;2022-10-26T06:53:30;11.00;99.90
52675;DHT22;38569;52.722;6.440;2022-10-26T06:55:58;11.00;99.90
52675;DHT22;38569;52.722;6.440;2022-10-26T06:58:27;11.00;99.90
52675;DHT22;38569;52.722;6.440;2022-10-26T07:00:54;11.10;99.90
52675;DHT22;38569;52.722;6.440;2022-10-26T07:03:20;11.10;99.90
52675;DHT22;38569;52.722;6.440;2022-10-26T07:05:46;11.20;99.90
52675;DHT22;38569;52.722;6.440;2022-10-26T07:08:12;11.20;99.90
52675;DHT22;38569;52.722;6.440;2022-10-26T07:10:39;11.30;99.90
52675;DHT22;38569;52.722;6.440;2022-10-26T07:13:05;11.40;99.90
52675;DHT22;38569;52.722;6.440;2022-10-26T07:15:32;11.40;99.90
52675;DHT22;38569;52.722;6.440;2022-10-26T07:17:58;11.40;99.90
52675;DHT22;38569;52.722;6.440;2022-10-26T07:20:24;11.50;99.90
52675;DHT22;38569;52.722;6.440;2022-10-26T07:22:54;11.50;99.90
52675;DHT22;38569;52.722;6.440;2022-10-26T07:25:21;11.50;99.90
52675;DHT22;38569;52.722;6.440;2022-10-26T07:27:47;11.60;99.90
52675;DHT22;38569;52.722;6.440;2022-10-26T07:30:13;11.70;99.90
52675;DHT22;38569;52.722;6.440;2022-10-26T07:32:39;11.70;99.90
52675;DHT22;38569;52.722;6.440;2022-10-26T07:35:05;11.90;99.90
52675;DHT22;38569;52.722;6.440;2022-10-26T07:37:31;11.90;99.90
52675;DHT22;38569;52.722;6.440;2022-10-26T07:39:56;12.10;99.90
52675;DHT22;38569;52.722;6.440;2022-10-26T07:42:22;12.10;99.90
52675;DHT22;38569;52.722;6.440;2022-10-26T07:44:48;12.10;99.90
52675;DHT22;38569;52.722;6.440;2022-10-26T07:47:14;12.20;99.90
52675;DHT22;38569;52.722;6.440;2022-10-26T07:49:40;12.30;99.90
52675;DHT22;38569;52.722;6.440;2022-10-26T07:52:08;12.40;99.90
52675;DHT22;38569;52.722;6.440;2022-10-26T07:54:35;12.50;99.90
52675;DHT22;38569;52.722;6.440;2022-10-26T07:57:00;12.70;99.90
52675;DHT22;38569;52.722;6.440;2022-10-26T07:59:28;12.80;99.90
52675;DHT22;38569;52.722;6.440;2022-10-26T08:01:54;13.00;99.90
52675;DHT22;38569;52.722;6.440;2022-10-26T08:04:19;13.10;99.90
52675;DHT22;38569;52.722;6.440;2022-10-26T08:06:45;13.20;99.90
52675;DHT22;38569;52.722;6.440;2022-10-26T08:09:11;13.30;99.90
52675;DHT22;38569;52.722;6.440;2022-10-26T08:11:37;13.40;99.90
52675;DHT22;38569;52.722;6.440;2022-10-26T08:14:03;13.50;99.90
52675;DHT22;38569;52.722;6.440;2022-10-26T08:16:29;13.50;99.90
52675;DHT22;38569;52.722;6.440;2022-10-26T08:18:56;13.60;99.90
52675;DHT22;38569;52.722;6.440;2022-10-26T08:21:22;13.60;99.90
52675;DHT22;38569;52.722;6.440;2022-10-26T08:23:47;13.60;99.90
52675;DHT22;38569;52.722;6.440;2022-10-26T08:26:13;13.60;99.90
52675;DHT22;38569;52.722;6.440;2022-10-26T08:28:39;13.60;99.90
52675;DHT22;38569;52.722;6.440;2022-10-26T08:31:06;13.50;99.90
52675;DHT22;38569;52.722;6.440;2022-10-26T08:33:31;13.50;99.90
52675;DHT22;38569;52.722;6.440;2022-10-26T08:36:00;13.50;99.90
52675;DHT22;38569;52.722;6.440;2022-10-26T08:38:26;13.50;99.90
52675;DHT22;38569;52.722;6.440;2022-10-26T08:40:52;13.50;99.90
52675;DHT22;38569;52.722;6.440;2022-10-26T08:43:23;13.60;99.90
52675;DHT22;38569;52.722;6.440;2022-10-26T08:48:24;13.70;99.90
52675;DHT22;38569;52.722;6.440;2022-10-26T08:51:00;13.80;99.90
52675;DHT22;38569;52.722;6.440;2022-10-26T08:53:28;13.90;99.90
52675;DHT22;38569;52.722;6.440;2022-10-26T08:56:05;14.00;99.90
52675;DHT22;38569;52.722;6.440;2022-10-26T08:58:39;14.10;99.90
52675;DHT22;38569;52.722;6.440;2022-10-26T09:01:07;14.20;99.90
52675;DHT22;38569;52.722;6.440;2022-10-26T09:03:33;14.30;99.90
52675;DHT22;38569;52.722;6.440;2022-10-26T09:08:54;14.60;99.90
52675;DHT22;38569;52.722;6.440;2022-10-26T09:24:55;15.60;99.90
52675;DHT22;38569;52.722;6.440;2022-10-26T09:27:36;16.50;99.90
52675;DHT22;38569;52.722;6.440;2022-10-26T09:30:15;17.60;99.90
52675;DHT22;38569;52.722;6.440;2022-10-26T09:32:46;18.70;99.90
52675;DHT22;38569;52.722;6.440;2022-10-26T09:35:21;19.50;99.90
52675;DHT22;38569;52.722;6.440;2022-10-26T09:37:51;20.40;99.90
52675;DHT22;38569;52.722;6.440;2022-10-26T09:43:18;20.70;99.90
52675;DHT22;38569;52.722;6.440;2022-10-26T09:45:48;19.80;99.90
52675;DHT22;38569;52.722;6.440;2022-10-26T09:50:52;18.90;99.90
52675;DHT22;38569;52.722;6.440;2022-10-26T09:53:17;19.10;99.90
52675;DHT22;38569;52.722;6.440;2022-10-26T09:55:48;19.30;99.90
52675;DHT22;38569;52.722;6.440;2022-10-26T09:58:22;20.30;99.90
52675;DHT22;38569;52.722;6.440;2022-10-26T10:00:50;21.40;99.90
52675;DHT22;38569;52.722;6.440;2022-10-26T10:05:52;22.90;99.90
52675;DHT22;38569;52.722;6.440;2022-10-26T10:08:23;22.80;99.90
52675;DHT22;38569;52.722;6.440;2022-10-26T10:11:07;22.60;99.90
52675;DHT22;38569;52.722;6.440;2022-10-26T10:13:35;22.60;99.90
52675;DHT22;38569;52.722;6.440;2022-10-26T10:16:20;23.10;99.90
52675;DHT22;38569;52.722;6.440;2022-10-26T10:18:57;23.40;99.90
52675;DHT22;38569;52.722;6.440;2022-10-26T10:21:38;23.90;99.90
52675;DHT22;38569;52.722;6.440;2022-10-26T10:24:29;24.50;99.30
52675;DHT22;38569;52.722;6.440;2022-10-26T10:29:25;24.90;99.80
52675;DHT22;38569;52.722;6.440;2022-10-26T10:31:59;24.40;98.50
52675;DHT22;38569;52.722;6.440;2022-10-26T10:34:25;24.10;98.30
52675;DHT22;38569;52.722;6.440;2022-10-26T10:36:51;24.40;99.00
52675;DHT22;38569;52.722;6.440;2022-10-26T10:42:17;24.80;96.10
52675;DHT22;38569;52.722;6.440;2022-10-26T10:44:43;24.70;97.30
52675;DHT22;38569;52.722;6.440;2022-10-26T10:47:21;24.10;97.50
52675;DHT22;38569;52.722;6.440;2022-10-26T10:52:26;23.50;98.40
52675;DHT22;38569;52.722;6.440;2022-10-26T11:00:16;22.70;99.30
52675;DHT22;38569;52.722;6.440;2022-10-26T11:03:14;22.60;99.90
52675;DHT22;38569;52.722;6.440;2022-10-26T11:08:38;21.50;99.90
52675;DHT22;38569;52.722;6.440;2022-10-26T11:11:54;21.40;99.90
52675;DHT22;38569;52.722;6.440;2022-10-26T11:16:45;22.20;99.90
52675;DHT22;38569;52.722;6.440;2022-10-26T11:19:21;22.30;99.90
52675;DHT22;38569;52.722;6.440;2022-10-26T11:21:52;22.10;99.90
52675;DHT22;38569;52.722;6.440;2022-10-26T11:24:46;22.40;99.90
52675;DHT22;38569;52.722;6.440;2022-10-26T11:27:25;22.60;99.90
52675;DHT22;38569;52.722;6.440;2022-10-26T11:35:33;22.30;99.90
52675;DHT22;38569;52.722;6.440;2022-10-26T11:38:15;22.20;99.90
52675;DHT22;38569;52.722;6.440;2022-10-26T11:40:49;22.30;99.90
52675;DHT22;38569;52.722;6.440;2022-10-26T11:45:48;23.20;99.90
52675;DHT22;38569;52.722;6.440;2022-10-26T11:48:39;23.60;99.90
52675;DHT22;38569;52.722;6.440;2022-10-26T11:51:37;23.70;99.30
52675;DHT22;38569;52.722;6.440;2022-10-26T11:54:08;23.60;99.30
52675;DHT22;38569;52.722;6.440;2022-10-26T11:56:43;23.40;99.90
52675;DHT22;38569;52.722;6.440;2022-10-26T11:59:39;23.50;99.70
52675;DHT22;38569;52.722;6.440;2022-10-26T12:02:25;23.60;99.00
52675;DHT22;38569;52.722;6.440;2022-10-26T12:05:02;23.40;99.80
52675;DHT22;38569;52.722;6.440;2022-10-26T12:07:32;23.50;99.90
52675;DHT22;38569;52.722;6.440;2022-10-26T12:10:00;23.50;99.90
52675;DHT22;38569;52.722;6.440;2022-10-26T12:12:37;23.40;99.90
52675;DHT22;38569;52.722;6.440;2022-10-26T12:18:13;22.80;99.90
52675;DHT22;38569;52.722;6.440;2022-10-26T12:23:29;22.70;99.90
52675;DHT22;38569;52.722;6.440;2022-10-26T12:33:57;22.40;99.90
52675;DHT22;38569;52.722;6.440;2022-10-26T12:50:01;21.50;99.90
52675;DHT22;38569;52.722;6.440;2022-10-26T13:00:26;21.60;99.90
52675;DHT22;38569;52.722;6.440;2022-10-26T13:08:13;21.40;99.90
52675;DHT22;38569;52.722;6.440;2022-10-26T13:13:31;21.20;99.90
52675;DHT22;38569;52.722;6.440;2022-10-26T13:15:59;21.10;99.90
52675;DHT22;38569;52.722;6.440;2022-10-26T13:18:25;21.00;99.90
52675;DHT22;38569;52.722;6.440;2022-10-26T13:23:55;20.70;99.90
52675;DHT22;38569;52.722;6.440;2022-10-26T13:26:24;20.70;99.90
52675;DHT22;38569;52.722;6.440;2022-10-26T13:28:55;20.90;99.90
52675;DHT22;38569;52.722;6.440;2022-10-26T13:34:08;21.10;99.90
52675;DHT22;38569;52.722;6.440;2022-10-26T13:36:43;21.10;99.90
52675;DHT22;38569;52.722;6.440;2022-10-26T13:39:31;21.10;99.90
52675;DHT22;38569;52.722;6.440;2022-10-26T13:42:00;21.10;99.90
52675;DHT22;38569;52.722;6.440;2022-10-26T13:44:38;21.10;99.90
52675;DHT22;38569;52.722;6.440;2022-10-26T13:47:14;21.20;99.90
52675;DHT22;38569;52.722;6.440;2022-10-26T13:49:44;21.40;99.90
52675;DHT22;38569;52.722;6.440;2022-10-26T13:52:40;21.50;99.90
52675;DHT22;38569;52.722;6.440;2022-10-26T13:55:15;21.30;99.90
52675;DHT22;38569;52.722;6.440;2022-10-26T13:57:49;21.00;99.90
52675;DHT22;38569;52.722;6.440;2022-10-26T14:00:22;20.80;99.90
52675;DHT22;38569;52.722;6.440;2022-10-26T14:02:47;20.70;99.90
52675;DHT22;38569;52.722;6.440;2022-10-26T14:05:15;20.80;99.90
52675;DHT22;38569;52.722;6.440;2022-10-26T14:07:51;20.90;99.90
52675;DHT22;38569;52.722;6.440;2022-10-26T14:10:38;21.00;99.90
52675;DHT22;38569;52.722;6.440;2022-10-26T14:13:12;21.10;99.90
52675;DHT22;38569;52.722;6.440;2022-10-26T14:15:41;21.00;99.90
52675;DHT22;38569;52.722;6.440;2022-10-26T14:18:16;20.90;99.90
52675;DHT22;38569;52.722;6.440;2022-10-26T14:20:53;20.80;99.90
52675;DHT22;38569;52.722;6.440;2022-10-26T14:23:33;20.70;99.90
52675;DHT22;38569;52.722;6.440;2022-10-26T14:26:00;20.70;99.90
52675;DHT22;38569;52.722;6.440;2022-10-26T14:28:38;20.60;99.90
52675;DHT22;38569;52.722;6.440;2022-10-26T14:31:23;20.50;99.90
52675;DHT22;38569;52.722;6.440;2022-10-26T14:33:51;20.40;99.90
52675;DHT22;38569;52.722;6.440;2022-10-26T14:36:20;20.30;99.90
52675;DHT22;38569;52.722;6.440;2022-10-26T14:38:49;20.20;99.90
52675;DHT22;38569;52.722;6.440;2022-10-26T14:41:16;20.10;99.90
52675;DHT22;38569;52.722;6.440;2022-10-26T14:43:43;20.00;99.90
52675;DHT22;38569;52.722;6.440;2022-10-26T14:46:16;19.80;99.90
52675;DHT22;38569;52.722;6.440;2022-10-26T14:48:56;19.60;99.90
52675;DHT22;38569;52.722;6.440;2022-10-26T14:51:33;19.40;99.90
52675;DHT22;38569;52.722;6.440;2022-10-26T14:54:00;19.30;99.90
52675;DHT22;38569;52.722;6.440;2022-10-26T14:56:38;19.20;99.90
52675;DHT22;38569;52.722;6.440;2022-10-26T14:59:24;19.10;99.90
52675;DHT22;38569;52.722;6.440;2022-10-26T15:04:37;18.90;99.90
52675;DHT22;38569;52.722;6.440;2022-10-26T15:07:16;18.80;99.90
52675;DHT22;38569;52.722;6.440;2022-10-26T15:09:45;18.80;99.90
52675;DHT22;38569;52.722;6.440;2022-10-26T15:12:37;18.70;99.90
52675;DHT22;38569;52.722;6.440;2022-10-26T15:15:29;18.60;99.90
52675;DHT22;38569;52.722;6.440;2022-10-26T15:17:55;18.60;99.90
52675;DHT22;38569;52.722;6.440;2022-10-26T15:20:24;18.50;99.90
52675;DHT22;38569;52.722;6.440;2022-10-26T15:25:23;18.40;99.90
52675;DHT22;38569;52.722;6.440;2022-10-26T15:27:50;18.30;99.90
52675;DHT22;38569;52.722;6.440;2022-10-26T15:30:26;18.30;99.90
52675;DHT22;38569;52.722;6.440;2022-10-26T15:32:54;18.20;99.90
52675;DHT22;38569;52.722;6.440;2022-10-26T15:35:26;18.10;99.90
52675;DHT22;38569;52.722;6.440;2022-10-26T15:37:54;18.00;99.90
52675;DHT22;38569;52.722;6.440;2022-10-26T15:40:21;17.90;99.90
52675;DHT22;38569;52.722;6.440;2022-10-26T15:42:51;17.80;99.90
52675;DHT22;38569;52.722;6.440;2022-10-26T15:45:24;17.80;99.90
52675;DHT22;38569;52.722;6.440;2022-10-26T15:47:52;17.80;99.90
52675;DHT22;38569;52.722;6.440;2022-10-26T15:50:22;17.80;99.90
52675;DHT22;38569;52.722;6.440;2022-10-26T15:52:48;17.80;99.90
52675;DHT22;38569;52.722;6.440;2022-10-26T15:55:15;17.80;99.90
52675;DHT22;38569;52.722;6.440;2022-10-26T15:57:41;17.70;99.90
52675;DHT22;38569;52.722;6.440;2022-10-26T16:00:13;17.60;99.90
52675;DHT22;38569;52.722;6.440;2022-10-26T16:02:41;17.50;99.90
52675;DHT22;38569;52.722;6.440;2022-10-26T16:05:08;17.40;99.90
52675;DHT22;38569;52.722;6.440;2022-10-26T16:07:34;17.30;99.90
52675;DHT22;38569;52.722;6.440;2022-10-26T16:09:59;17.20;99.90
52675;DHT22;38569;52.722;6.440;2022-10-26T16:12:25;17.10;99.90
52675;DHT22;38569;52.722;6.440;2022-10-26T16:14:51;17.00;99.90
52675;DHT22;38569;52.722;6.440;2022-10-26T16:17:16;16.90;99.90
52675;DHT22;38569;52.722;6.440;2022-10-26T16:19:42;16.90;99.90
52675;DHT22;38569;52.722;6.440;2022-10-26T16:22:08;16.90;99.90
52675;DHT22;38569;52.722;6.440;2022-10-26T16:24:34;16.90;99.90
52675;DHT22;38569;52.722;6.440;2022-10-26T16:27:00;16.90;99.90
52675;DHT22;38569;52.722;6.440;2022-10-26T16:29:25;17.00;99.90
52675;DHT22;38569;52.722;6.440;2022-10-26T16:31:51;17.00;99.90
52675;DHT22;38569;52.722;6.440;2022-10-26T16:34:17;17.00;99.90
52675;DHT22;38569;52.722;6.440;2022-10-26T16:36:42;17.00;99.90
52675;DHT22;38569;52.722;6.440;2022-10-26T16:39:10;17.00;99.90
52675;DHT22;38569;52.722;6.440;2022-10-26T16:41:36;17.00;99.90
52675;DHT22;38569;52.722;6.440;2022-10-26T16:44:02;17.00;99.90
52675;DHT22;38569;52.722;6.440;2022-10-26T16:46:28;17.00;99.90
52675;DHT22;38569;52.722;6.440;2022-10-26T16:48:54;17.00;99.90
52675;DHT22;38569;52.722;6.440;2022-10-26T16:51:21;17.00;99.90
52675;DHT22;38569;52.722;6.440;2022-10-26T16:53:49;17.00;99.90
52675;DHT22;38569;52.722;6.440;2022-10-26T16:56:18;17.00;99.90
52675;DHT22;38569;52.722;6.440;2022-10-26T16:58:44;17.00;99.90
52675;DHT22;38569;52.722;6.440;2022-10-26T17:01:12;17.00;99.90
52675;DHT22;38569;52.722;6.440;2022-10-26T17:03:38;17.00;99.90
52675;DHT22;38569;52.722;6.440;2022-10-26T17:06:06;17.00;99.90
52675;DHT22;38569;52.722;6.440;2022-10-26T17:08:33;17.00;99.90
52675;DHT22;38569;52.722;6.440;2022-10-26T17:11:10;16.90;99.90
52675;DHT22;38569;52.722;6.440;2022-10-26T17:13:37;16.90;99.90
52675;DHT22;38569;52.722;6.440;2022-10-26T17:16:05;16.80;99.90
52675;DHT22;38569;52.722;6.440;2022-10-26T17:18:31;16.70;99.90
52675;DHT22;38569;52.722;6.440;2022-10-26T17:20:57;16.60;99.90
52675;DHT22;38569;52.722;6.440;2022-10-26T17:23:23;16.50;99.90
52675;DHT22;38569;52.722;6.440;2022-10-26T17:25:49;16.40;99.90
52675;DHT22;38569;52.722;6.440;2022-10-26T17:28:15;16.30;99.90
52675;DHT22;38569;52.722;6.440;2022-10-26T17:30:40;16.20;99.90
52675;DHT22;38569;52.722;6.440;2022-10-26T17:33:06;16.10;99.90
52675;DHT22;38569;52.722;6.440;2022-10-26T17:35:33;16.00;99.90
52675;DHT22;38569;52.722;6.440;2022-10-26T17:37:59;16.00;99.90
52675;DHT22;38569;52.722;6.440;2022-10-26T17:40:25;15.90;99.90
52675;DHT22;38569;52.722;6.440;2022-10-26T17:42:51;15.90;99.90
52675;DHT22;38569;52.722;6.440;2022-10-26T17:45:16;15.80;99.90
52675;DHT22;38569;52.722;6.440;2022-10-26T17:47:42;15.70;99.90
52675;DHT22;38569;52.722;6.440;2022-10-26T17:50:08;15.70;99.90
52675;DHT22;38569;52.722;6.440;2022-10-26T17:52:34;15.60;99.90
52675;DHT22;38569;52.722;6.440;2022-10-26T17:55:00;15.60;99.90
52675;DHT22;38569;52.722;6.440;2022-10-26T17:57:26;15.60;99.90
52675;DHT22;38569;52.722;6.440;2022-10-26T17:59:51;15.60;99.90
52675;DHT22;38569;52.722;6.440;2022-10-26T18:02:17;15.50;99.90
52675;DHT22;38569;52.722;6.440;2022-10-26T18:04:43;15.50;99.90
52675;DHT22;38569;52.722;6.440;2022-10-26T18:07:11;15.50;99.90
52675;DHT22;38569;52.722;6.440;2022-10-26T18:09:37;15.40;99.90
52675;DHT22;38569;52.722;6.440;2022-10-26T18:12:03;15.40;99.90
52675;DHT22;38569;52.722;6.440;2022-10-26T18:14:28;15.30;99.90
52675;DHT22;38569;52.722;6.440;2022-10-26T18:16:54;15.20;99.90
52675;DHT22;38569;52.722;6.440;2022-10-26T18:19:20;15.20;99.90
52675;DHT22;38569;52.722;6.440;2022-10-26T18:21:46;15.20;99.90
52675;DHT22;38569;52.722;6.440;2022-10-26T18:24:11;15.20;99.90
52675;DHT22;38569;52.722;6.440;2022-10-26T18:26:37;15.10;99.90
52675;DHT22;38569;52.722;6.440;2022-10-26T18:29:04;15.10;99.90
52675;DHT22;38569;52.722;6.440;2022-10-26T18:31:31;15.10;99.90
52675;DHT22;38569;52.722;6.440;2022-10-26T18:33:58;15.00;99.90
52675;DHT22;38569;52.722;6.440;2022-10-26T18:36:25;15.00;99.90
52675;DHT22;38569;52.722;6.440;2022-10-26T18:38:51;15.00;99.90
52675;DHT22;38569;52.722;6.440;2022-10-26T18:41:19;15.00;99.90
52675;DHT22;38569;52.722;6.440;2022-10-26T18:43:47;15.00;99.90
52675;DHT22;38569;52.722;6.440;2022-10-26T18:46:38;15.00;99.90
52675;DHT22;38569;52.722;6.440;2022-10-26T18:49:04;15.10;99.90
52675;DHT22;38569;52.722;6.440;2022-10-26T18:51:32;15.10;99.90
52675;DHT22;38569;52.722;6.440;2022-10-26T18:53:59;15.10;99.90
52675;DHT22;38569;52.722;6.440;2022-10-26T18:56:25;15.20;99.90
52675;DHT22;38569;52.722;6.440;2022-10-26T18:58:56;15.20;99.90
52675;DHT22;38569;52.722;6.440;2022-10-26T19:01:28;15.30;99.90